Collettsville, North Carolina
Current Conditions -  °F | °C
As of 5:15 PM on Sunday 25 Jan 2015 (Local Time) from KMRN Reporting Station
Clear Clear  
Wind Chill: 55°   Ceiling: Unl
Heat Index: 55°   Visibility: 10mi
Dew Point: 26°   Wind: 5mph
Humidity: 33%   Direction: 200°SSW
Pressure: 29.78"   Gusts: NA
Location:  35.93°N, 81.67°W
Report Text: KMRN 252215Z AUTO 20004KT 10SM CLR 13/M04 A2978 RMK AO2 T01251036
Loading
Personal Weather Stations






























Interactive Weather Map New forecast layout! Learn more

10-Day Weather Forecast

Advertisements
Track Severe Weather on mobile